sensor_id;sensor_type;location;lat;lon;timestamp;temperature;humidity
41722;DHT22;27407;24.142;-110.310;2023-07-16T00:02:19;46.20;70.50
41722;DHT22;27407;24.142;-110.310;2023-07-16T00:04:45;46.10;70.70
41722;DHT22;27407;24.142;-110.310;2023-07-16T00:07:12;46.40;70.50
41722;DHT22;27407;24.142;-110.310;2023-07-16T00:09:39;46.30;70.20
41722;DHT22;27407;24.142;-110.310;2023-07-16T00:12:06;46.10;70.30
41722;DHT22;27407;24.142;-110.310;2023-07-16T00:14:33;46.20;70.40
41722;DHT22;27407;24.142;-110.310;2023-07-16T00:16:59;45.90;70.60
41722;DHT22;27407;24.142;-110.310;2023-07-16T00:19:26;45.60;70.60
41722;DHT22;27407;24.142;-110.310;2023-07-16T00:21:53;45.60;70.60
41722;DHT22;27407;24.142;-110.310;2023-07-16T00:24:19;45.50;71.10
41722;DHT22;27407;24.142;-110.310;2023-07-16T00:26:46;45.40;71.20
41722;DHT22;27407;24.142;-110.310;2023-07-16T00:29:12;45.60;70.60
41722;DHT22;27407;24.142;-110.310;2023-07-16T00:31:39;45.60;70.90
41722;DHT22;27407;24.142;-110.310;2023-07-16T00:34:06;45.50;71.00
41722;DHT22;27407;24.142;-110.310;2023-07-16T00:36:32;45.10;71.70
41722;DHT22;27407;24.142;-110.310;2023-07-16T00:38:59;44.50;72.10
41722;DHT22;27407;24.142;-110.310;2023-07-16T00:41:26;44.30;72.40
41722;DHT22;27407;24.142;-110.310;2023-07-16T00:43:52;44.30;72.50
41722;DHT22;27407;24.142;-110.310;2023-07-16T00:46:20;44.30;72.50
41722;DHT22;27407;24.142;-110.310;2023-07-16T00:48:47;44.30;72.60
41722;DHT22;27407;24.142;-110.310;2023-07-16T00:51:14;44.20;72.70
41722;DHT22;27407;24.142;-110.310;2023-07-16T00:53:41;43.90;73.20
41722;DHT22;27407;24.142;-110.310;2023-07-16T00:56:09;43.70;74.00
41722;DHT22;27407;24.142;-110.310;2023-07-16T00:58:36;43.30;74.70
41722;DHT22;27407;24.142;-110.310;2023-07-16T01:01:03;43.30;74.80
41722;DHT22;27407;24.142;-110.310;2023-07-16T01:03:30;43.30;74.80
41722;DHT22;27407;24.142;-110.310;2023-07-16T01:06:18;43.00;75.50
41722;DHT22;27407;24.142;-110.310;2023-07-16T01:09:03;42.70;76.00
41722;DHT22;27407;24.142;-110.310;2023-07-16T01:11:30;42.60;76.80
41722;DHT22;27407;24.142;-110.310;2023-07-16T01:13:57;42.40;76.90
41722;DHT22;27407;24.142;-110.310;2023-07-16T01:16:25;42.00;77.50
41722;DHT22;27407;24.142;-110.310;2023-07-16T01:18:52;42.00;77.90
41722;DHT22;27407;24.142;-110.310;2023-07-16T01:21:23;41.50;79.10
41722;DHT22;27407;24.142;-110.310;2023-07-16T01:30:04;40.60;80.70
41722;DHT22;27407;24.142;-110.310;2023-07-16T01:32:36;40.30;81.50
41722;DHT22;27407;24.142;-110.310;2023-07-16T01:35:05;39.90;82.30
41722;DHT22;27407;24.142;-110.310;2023-07-16T01:37:32;39.80;83.40
41722;DHT22;27407;24.142;-110.310;2023-07-16T01:39:59;39.40;83.70
41722;DHT22;27407;24.142;-110.310;2023-07-16T01:42:26;38.90;84.90
41722;DHT22;27407;24.142;-110.310;2023-07-16T01:44:52;38.80;85.60
41722;DHT22;27407;24.142;-110.310;2023-07-16T01:50:04;38.20;87.20
41722;DHT22;27407;24.142;-110.310;2023-07-16T01:52:31;38.10;88.40
41722;DHT22;27407;24.142;-110.310;2023-07-16T01:54:58;38.00;88.10
41722;DHT22;27407;24.142;-110.310;2023-07-16T01:57:25;37.90;88.50
41722;DHT22;27407;24.142;-110.310;2023-07-16T01:59:51;37.50;89.20
41722;DHT22;27407;24.142;-110.310;2023-07-16T02:02:18;37.50;89.60
41722;DHT22;27407;24.142;-110.310;2023-07-16T02:04:44;37.60;89.90
41722;DHT22;27407;24.142;-110.310;2023-07-16T02:07:11;37.40;90.20
41722;DHT22;27407;24.142;-110.310;2023-07-16T02:09:37;37.10;90.90
41722;DHT22;27407;24.142;-110.310;2023-07-16T02:12:04;36.80;91.10
41722;DHT22;27407;24.142;-110.310;2023-07-16T02:14:31;36.60;91.60
41722;DHT22;27407;24.142;-110.310;2023-07-16T02:16:58;36.40;92.00
41722;DHT22;27407;24.142;-110.310;2023-07-16T02:19:24;36.30;92.30
41722;DHT22;27407;24.142;-110.310;2023-07-16T02:21:52;36.30;92.50
41722;DHT22;27407;24.142;-110.310;2023-07-16T02:24:18;36.40;92.70
41722;DHT22;27407;24.142;-110.310;2023-07-16T02:26:45;36.20;93.00
41722;DHT22;27407;24.142;-110.310;2023-07-16T02:29:12;36.20;93.20
41722;DHT22;27407;24.142;-110.310;2023-07-16T02:31:38;36.00;93.60
41722;DHT22;27407;24.142;-110.310;2023-07-16T02:34:05;35.90;93.90
41722;DHT22;27407;24.142;-110.310;2023-07-16T02:36:31;35.80;94.30
41722;DHT22;27407;24.142;-110.310;2023-07-16T02:38:58;35.60;94.60
41722;DHT22;27407;24.142;-110.310;2023-07-16T02:41:25;35.50;95.00
41722;DHT22;27407;24.142;-110.310;2023-07-16T02:43:59;35.40;95.30
41722;DHT22;27407;24.142;-110.310;2023-07-16T02:46:26;35.20;95.60
41722;DHT22;27407;24.142;-110.310;2023-07-16T02:48:53;35.10;96.00
41722;DHT22;27407;24.142;-110.310;2023-07-16T02:51:20;35.10;96.50
41722;DHT22;27407;24.142;-110.310;2023-07-16T02:53:46;35.10;96.80
41722;DHT22;27407;24.142;-110.310;2023-07-16T02:56:13;34.90;97.00
41722;DHT22;27407;24.142;-110.310;2023-07-16T02:58:40;34.80;97.30
41722;DHT22;27407;24.142;-110.310;2023-07-16T03:01:06;34.80;97.70
41722;DHT22;27407;24.142;-110.310;2023-07-16T03:03:33;34.60;98.10
41722;DHT22;27407;24.142;-110.310;2023-07-16T03:05:59;34.40;98.50
41722;DHT22;27407;24.142;-110.310;2023-07-16T03:08:26;34.50;98.80
41722;DHT22;27407;24.142;-110.310;2023-07-16T03:10:56;34.30;99.10
41722;DHT22;27407;24.142;-110.310;2023-07-16T03:13:23;34.20;99.40
41722;DHT22;27407;24.142;-110.310;2023-07-16T03:15:50;34.20;99.70
41722;DHT22;27407;24.142;-110.310;2023-07-16T03:18:18;34.10;99.90
41722;DHT22;27407;24.142;-110.310;2023-07-16T03:20:46;34.10;99.90
41722;DHT22;27407;24.142;-110.310;2023-07-16T03:23:13;34.10;99.90
41722;DHT22;27407;24.142;-110.310;2023-07-16T03:25:39;34.00;99.90
41722;DHT22;27407;24.142;-110.310;2023-07-16T03:28:06;34.10;99.90
41722;DHT22;27407;24.142;-110.310;2023-07-16T03:30:33;34.00;99.90
41722;DHT22;27407;24.142;-110.310;2023-07-16T03:32:59;34.10;99.90
41722;DHT22;27407;24.142;-110.310;2023-07-16T03:35:26;33.90;99.90
41722;DHT22;27407;24.142;-110.310;2023-07-16T03:37:53;33.90;99.90
41722;DHT22;27407;24.142;-110.310;2023-07-16T03:40:24;33.90;99.90
41722;DHT22;27407;24.142;-110.310;2023-07-16T03:42:52;33.90;99.90
41722;DHT22;27407;24.142;-110.310;2023-07-16T03:45:19;33.70;99.90
41722;DHT22;27407;24.142;-110.310;2023-07-16T03:47:45;33.70;99.90
41722;DHT22;27407;24.142;-110.310;2023-07-16T03:50:12;33.80;99.90
41722;DHT22;27407;24.142;-110.310;2023-07-16T03:52:39;33.70;99.90
41722;DHT22;27407;24.142;-110.310;2023-07-16T03:55:06;33.60;99.90
41722;DHT22;27407;24.142;-110.310;2023-07-16T03:57:33;33.80;99.90
41722;DHT22;27407;24.142;-110.310;2023-07-16T03:59:59;33.50;99.90
41722;DHT22;27407;24.142;-110.310;2023-07-16T04:02:26;33.40;99.90
41722;DHT22;27407;24.142;-110.310;2023-07-16T04:04:53;33.50;99.90
41722;DHT22;27407;24.142;-110.310;2023-07-16T04:07:19;33.60;99.90
41722;DHT22;27407;24.142;-110.310;2023-07-16T04:09:46;33.60;99.90
41722;DHT22;27407;24.142;-110.310;2023-07-16T04:12:13;33.70;99.90
41722;DHT22;27407;24.142;-110.310;2023-07-16T04:14:40;33.60;99.90
41722;DHT22;27407;24.142;-110.310;2023-07-16T04:17:06;33.60;99.90
41722;DHT22;27407;24.142;-110.310;2023-07-16T04:19:33;33.50;99.90
41722;DHT22;27407;24.142;-110.310;2023-07-16T04:22:00;33.50;99.90
41722;DHT22;27407;24.142;-110.310;2023-07-16T04:24:26;33.50;99.90
41722;DHT22;27407;24.142;-110.310;2023-07-16T04:26:54;33.50;99.90
41722;DHT22;27407;24.142;-110.310;2023-07-16T04:29:20;33.50;99.90
41722;DHT22;27407;24.142;-110.310;2023-07-16T04:31:47;33.50;99.90
41722;DHT22;27407;24.142;-110.310;2023-07-16T04:34:14;33.30;99.90
41722;DHT22;27407;24.142;-110.310;2023-07-16T04:36:42;33.20;99.90
41722;DHT22;27407;24.142;-110.310;2023-07-16T04:39:09;33.20;99.90
41722;DHT22;27407;24.142;-110.310;2023-07-16T04:41:36;33.20;99.90
41722;DHT22;27407;24.142;-110.310;2023-07-16T04:44:03;33.30;99.90
41722;DHT22;27407;24.142;-110.310;2023-07-16T04:46:29;33.20;99.90
41722;DHT22;27407;24.142;-110.310;2023-07-16T04:48:56;33.10;99.90
41722;DHT22;27407;24.142;-110.310;2023-07-16T04:51:23;33.20;99.90
41722;DHT22;27407;24.142;-110.310;2023-07-16T04:53:49;33.10;99.90
41722;DHT22;27407;24.142;-110.310;2023-07-16T04:56:16;33.00;99.90
41722;DHT22;27407;24.142;-110.310;2023-07-16T04:58:43;33.00;99.90
41722;DHT22;27407;24.142;-110.310;2023-07-16T05:01:10;32.90;99.90
41722;DHT22;27407;24.142;-110.310;2023-07-16T05:03:37;32.80;99.90
41722;DHT22;27407;24.142;-110.310;2023-07-16T05:06:04;32.80;99.90
41722;DHT22;27407;24.142;-110.310;2023-07-16T05:08:31;32.80;99.90
41722;DHT22;27407;24.142;-110.310;2023-07-16T05:10:57;32.90;99.90
41722;DHT22;27407;24.142;-110.310;2023-07-16T05:13:25;32.70;99.90
41722;DHT22;27407;24.142;-110.310;2023-07-16T05:15:51;32.80;99.90
41722;DHT22;27407;24.142;-110.310;2023-07-16T05:18:18;32.70;99.90
41722;DHT22;27407;24.142;-110.310;2023-07-16T05:20:47;32.70;99.90
41722;DHT22;27407;24.142;-110.310;2023-07-16T05:23:14;32.80;99.90
41722;DHT22;27407;24.142;-110.310;2023-07-16T05:25:48;32.70;99.90
41722;DHT22;27407;24.142;-110.310;2023-07-16T05:28:15;32.70;99.90
41722;DHT22;27407;24.142;-110.310;2023-07-16T05:30:42;32.60;99.90
41722;DHT22;27407;24.142;-110.310;2023-07-16T05:33:10;32.60;99.90
41722;DHT22;27407;24.142;-110.310;2023-07-16T05:35:40;32.50;99.90
41722;DHT22;27407;24.142;-110.310;2023-07-16T05:38:07;32.60;99.90
41722;DHT22;27407;24.142;-110.310;2023-07-16T05:40:33;32.50;99.90
41722;DHT22;27407;24.142;-110.310;2023-07-16T05:43:00;32.30;99.90
41722;DHT22;27407;24.142;-110.310;2023-07-16T05:45:27;32.30;99.90
41722;DHT22;27407;24.142;-110.310;2023-07-16T05:47:53;32.30;99.90
41722;DHT22;27407;24.142;-110.310;2023-07-16T05:50:20;32.20;99.90
41722;DHT22;27407;24.142;-110.310;2023-07-16T05:52:47;32.10;99.90
41722;DHT22;27407;24.142;-110.310;2023-07-16T05:55:14;32.10;99.90
41722;DHT22;27407;24.142;-110.310;2023-07-16T05:57:41;31.90;99.90
41722;DHT22;27407;24.142;-110.310;2023-07-16T06:00:08;31.80;99.90
41722;DHT22;27407;24.142;-110.310;2023-07-16T06:02:35;31.80;99.90
41722;DHT22;27407;24.142;-110.310;2023-07-16T06:05:02;31.60;99.90
41722;DHT22;27407;24.142;-110.310;2023-07-16T06:07:28;31.70;99.90
41722;DHT22;27407;24.142;-110.310;2023-07-16T06:09:55;31.50;99.90
41722;DHT22;27407;24.142;-110.310;2023-07-16T06:12:21;31.50;99.90
41722;DHT22;27407;24.142;-110.310;2023-07-16T06:14:48;31.50;99.90
41722;DHT22;27407;24.142;-110.310;2023-07-16T06:17:15;31.40;99.90
41722;DHT22;27407;24.142;-110.310;2023-07-16T06:19:42;31.40;99.90
41722;DHT22;27407;24.142;-110.310;2023-07-16T06:22:08;31.20;99.90
41722;DHT22;27407;24.142;-110.310;2023-07-16T06:24:35;31.20;99.90
41722;DHT22;27407;24.142;-110.310;2023-07-16T06:27:02;31.00;99.90
41722;DHT22;27407;24.142;-110.310;2023-07-16T06:29:29;31.10;99.90
41722;DHT22;27407;24.142;-110.310;2023-07-16T06:31:58;31.00;99.90
41722;DHT22;27407;24.142;-110.310;2023-07-16T06:34:25;31.00;99.90
41722;DHT22;27407;24.142;-110.310;2023-07-16T06:36:59;30.90;99.90
41722;DHT22;27407;24.142;-110.310;2023-07-16T06:39:33;30.90;99.90
41722;DHT22;27407;24.142;-110.310;2023-07-16T06:41:59;31.10;99.90
41722;DHT22;27407;24.142;-110.310;2023-07-16T06:44:26;31.00;99.90
41722;DHT22;27407;24.142;-110.310;2023-07-16T06:46:53;31.00;99.90
41722;DHT22;27407;24.142;-110.310;2023-07-16T06:49:21;30.80;99.90
41722;DHT22;27407;24.142;-110.310;2023-07-16T06:51:47;30.90;99.90
41722;DHT22;27407;24.142;-110.310;2023-07-16T06:54:14;31.00;99.90
41722;DHT22;27407;24.142;-110.310;2023-07-16T06:56:41;30.90;99.90
41722;DHT22;27407;24.142;-110.310;2023-07-16T06:59:07;31.10;99.90
41722;DHT22;27407;24.142;-110.310;2023-07-16T07:01:34;31.00;99.90
41722;DHT22;27407;24.142;-110.310;2023-07-16T07:04:05;31.00;99.90
41722;DHT22;27407;24.142;-110.310;2023-07-16T07:06:32;30.80;99.90
41722;DHT22;27407;24.142;-110.310;2023-07-16T07:08:59;30.90;99.90
41722;DHT22;27407;24.142;-110.310;2023-07-16T07:11:25;30.90;99.90
41722;DHT22;27407;24.142;-110.310;2023-07-16T07:13:52;30.70;99.90
41722;DHT22;27407;24.142;-110.310;2023-07-16T07:16:19;30.90;99.90
41722;DHT22;27407;24.142;-110.310;2023-07-16T07:18:51;30.90;99.90
41722;DHT22;27407;24.142;-110.310;2023-07-16T07:21:18;30.70;99.90
41722;DHT22;27407;24.142;-110.310;2023-07-16T07:23:44;30.70;99.90
41722;DHT22;27407;24.142;-110.310;2023-07-16T07:26:11;30.60;99.90
41722;DHT22;27407;24.142;-110.310;2023-07-16T07:28:38;30.70;99.90
41722;DHT22;27407;24.142;-110.310;2023-07-16T07:31:05;30.70;99.90
41722;DHT22;27407;24.142;-110.310;2023-07-16T07:33:32;30.80;99.90
41722;DHT22;27407;24.142;-110.310;2023-07-16T07:36:02;30.70;99.90
41722;DHT22;27407;24.142;-110.310;2023-07-16T07:38:32;30.70;99.90
41722;DHT22;27407;24.142;-110.310;2023-07-16T07:41:00;30.60;99.90
41722;DHT22;27407;24.142;-110.310;2023-07-16T07:43:27;30.60;99.90
41722;DHT22;27407;24.142;-110.310;2023-07-16T07:45:54;30.70;99.90
41722;DHT22;27407;24.142;-110.310;2023-07-16T07:48:21;30.70;99.90
41722;DHT22;27407;24.142;-110.310;2023-07-16T07:50:47;30.50;99.90
41722;DHT22;27407;24.142;-110.310;2023-07-16T07:53:14;30.60;99.90
41722;DHT22;27407;24.142;-110.310;2023-07-16T07:55:41;30.60;99.90
41722;DHT22;27407;24.142;-110.310;2023-07-16T07:58:08;30.60;99.90
41722;DHT22;27407;24.142;-110.310;2023-07-16T08:00:34;30.50;99.90
41722;DHT22;27407;24.142;-110.310;2023-07-16T08:03:01;30.60;99.90
41722;DHT22;27407;24.142;-110.310;2023-07-16T08:05:28;30.60;99.90
41722;DHT22;27407;24.142;-110.310;2023-07-16T08:07:54;30.60;99.90
41722;DHT22;27407;24.142;-110.310;2023-07-16T08:10:22;30.50;99.90
41722;DHT22;27407;24.142;-110.310;2023-07-16T08:12:49;30.40;99.90
41722;DHT22;27407;24.142;-110.310;2023-07-16T08:15:15;30.50;99.90
41722;DHT22;27407;24.142;-110.310;2023-07-16T08:17:45;30.50;99.90
41722;DHT22;27407;24.142;-110.310;2023-07-16T08:20:13;30.40;99.90
41722;DHT22;27407;24.142;-110.310;2023-07-16T08:22:39;30.30;99.90
41722;DHT22;27407;24.142;-110.310;2023-07-16T08:25:07;30.40;99.90
41722;DHT22;27407;24.142;-110.310;2023-07-16T08:27:34;30.30;99.90
41722;DHT22;27407;24.142;-110.310;2023-07-16T08:30:01;30.30;99.90
41722;DHT22;27407;24.142;-110.310;2023-07-16T08:32:28;30.20;99.90
41722;DHT22;27407;24.142;-110.310;2023-07-16T08:34:54;30.10;99.90
41722;DHT22;27407;24.142;-110.310;2023-07-16T08:37:21;30.00;99.90
41722;DHT22;27407;24.142;-110.310;2023-07-16T08:39:53;30.10;99.90
41722;DHT22;27407;24.142;-110.310;2023-07-16T08:42:21;30.00;99.90
41722;DHT22;27407;24.142;-110.310;2023-07-16T08:44:51;29.90;99.90
41722;DHT22;27407;24.142;-110.310;2023-07-16T08:47:18;29.90;99.90
41722;DHT22;27407;24.142;-110.310;2023-07-16T08:49:57;29.90;99.90
41722;DHT22;27407;24.142;-110.310;2023-07-16T08:52:25;29.80;99.90
41722;DHT22;27407;24.142;-110.310;2023-07-16T08:54:53;29.60;99.90
41722;DHT22;27407;24.142;-110.310;2023-07-16T08:57:20;29.50;99.90
41722;DHT22;27407;24.142;-110.310;2023-07-16T08:59:50;29.40;99.90
41722;DHT22;27407;24.142;-110.310;2023-07-16T09:02:18;29.40;99.90
41722;DHT22;27407;24.142;-110.310;2023-07-16T09:04:48;29.40;99.90
41722;DHT22;27407;24.142;-110.310;2023-07-16T09:07:17;29.30;99.90
41722;DHT22;27407;24.142;-110.310;2023-07-16T09:09:43;29.20;99.90
41722;DHT22;27407;24.142;-110.310;2023-07-16T09:12:24;29.20;99.90
41722;DHT22;27407;24.142;-110.310;2023-07-16T09:14:50;29.20;99.90
41722;DHT22;27407;24.142;-110.310;2023-07-16T09:17:22;29.00;99.90
41722;DHT22;27407;24.142;-110.310;2023-07-16T09:19:51;28.90;99.90
41722;DHT22;27407;24.142;-110.310;2023-07-16T09:22:20;28.90;99.90
41722;DHT22;27407;24.142;-110.310;2023-07-16T09:24:48;28.80;99.90
41722;DHT22;27407;24.142;-110.310;2023-07-16T09:27:14;28.80;99.90
41722;DHT22;27407;24.142;-110.310;2023-07-16T09:29:41;28.70;99.90
41722;DHT22;27407;24.142;-110.310;2023-07-16T09:32:08;28.70;99.90
41722;DHT22;27407;24.142;-110.310;2023-07-16T09:34:35;28.80;99.90
41722;DHT22;27407;24.142;-110.310;2023-07-16T09:37:03;28.80;99.90
41722;DHT22;27407;24.142;-110.310;2023-07-16T09:39:32;28.80;99.90
41722;DHT22;27407;24.142;-110.310;2023-07-16T09:41:59;28.80;99.90
41722;DHT22;27407;24.142;-110.310;2023-07-16T09:44:26;28.70;99.90
41722;DHT22;27407;24.142;-110.310;2023-07-16T09:46:53;28.70;99.90
41722;DHT22;27407;24.142;-110.310;2023-07-16T09:49:28;28.70;99.90
41722;DHT22;27407;24.142;-110.310;2023-07-16T09:51:57;28.60;99.90
41722;DHT22;27407;24.142;-110.310;2023-07-16T09:54:25;28.60;99.90
41722;DHT22;27407;24.142;-110.310;2023-07-16T09:56:58;28.60;99.90
41722;DHT22;27407;24.142;-110.310;2023-07-16T09:59:27;28.60;99.90
41722;DHT22;27407;24.142;-110.310;2023-07-16T10:01:55;28.80;99.90
41722;DHT22;27407;24.142;-110.310;2023-07-16T10:04:22;28.70;99.90
41722;DHT22;27407;24.142;-110.310;2023-07-16T10:09:41;28.50;99.90
41722;DHT22;27407;24.142;-110.310;2023-07-16T10:14:48;28.60;99.90
41722;DHT22;27407;24.142;-110.310;2023-07-16T10:17:23;28.60;99.90
41722;DHT22;27407;24.142;-110.310;2023-07-16T10:20:00;28.40;99.90
41722;DHT22;27407;24.142;-110.310;2023-07-16T10:22:40;28.70;99.90
41722;DHT22;27407;24.142;-110.310;2023-07-16T10:25:24;28.60;99.90
41722;DHT22;27407;24.142;-110.310;2023-07-16T10:27:52;28.40;99.90
41722;DHT22;27407;24.142;-110.310;2023-07-16T10:30:19;28.30;99.90
41722;DHT22;27407;24.142;-110.310;2023-07-16T10:32:45;28.30;99.90
41722;DHT22;27407;24.142;-110.310;2023-07-16T10:35:13;28.30;99.90
41722;DHT22;27407;24.142;-110.310;2023-07-16T10:37:40;28.40;99.90
41722;DHT22;27407;24.142;-110.310;2023-07-16T10:40:11;28.40;99.90
41722;DHT22;27407;24.142;-110.310;2023-07-16T10:42:41;28.40;99.90
41722;DHT22;27407;24.142;-110.310;2023-07-16T10:45:09;28.30;99.90
41722;DHT22;27407;24.142;-110.310;2023-07-16T10:47:39;28.30;99.90
41722;DHT22;27407;24.142;-110.310;2023-07-16T10:50:08;28.40;99.90
41722;DHT22;27407;24.142;-110.310;2023-07-16T10:52:36;28.30;99.90
41722;DHT22;27407;24.142;-110.310;2023-07-16T10:55:04;28.30;99.90
41722;DHT22;27407;24.142;-110.310;2023-07-16T10:57:31;28.20;99.90
41722;DHT22;27407;24.142;-110.310;2023-07-16T10:59:58;28.20;99.90
41722;DHT22;27407;24.142;-110.310;2023-07-16T11:02:25;28.10;99.90
41722;DHT22;27407;24.142;-110.310;2023-07-16T11:04:52;28.20;99.90
41722;DHT22;27407;24.142;-110.310;2023-07-16T11:07:20;28.20;99.90
41722;DHT22;27407;24.142;-110.310;2023-07-16T11:09:56;28.10;99.90
41722;DHT22;27407;24.142;-110.310;2023-07-16T11:12:24;28.20;99.90
41722;DHT22;27407;24.142;-110.310;2023-07-16T11:14:55;28.20;99.90
41722;DHT22;27407;24.142;-110.310;2023-07-16T11:17:24;28.10;99.90
41722;DHT22;27407;24.142;-110.310;2023-07-16T11:19:52;28.10;99.90
41722;DHT22;27407;24.142;-110.310;2023-07-16T11:22:19;28.20;99.90
41722;DHT22;27407;24.142;-110.310;2023-07-16T11:24:47;28.10;99.90
41722;DHT22;27407;24.142;-110.310;2023-07-16T11:27:27;28.10;99.90
41722;DHT22;27407;24.142;-110.310;2023-07-16T11:29:56;28.10;99.90
41722;DHT22;27407;24.142;-110.310;2023-07-16T11:32:41;28.20;99.90
41722;DHT22;27407;24.142;-110.310;2023-07-16T11:35:08;28.10;99.90
41722;DHT22;27407;24.142;-110.310;2023-07-16T11:37:37;28.30;99.90
41722;DHT22;27407;24.142;-110.310;2023-07-16T11:40:06;28.20;99.90
41722;DHT22;27407;24.142;-110.310;2023-07-16T11:42:34;28.10;99.90
41722;DHT22;27407;24.142;-110.310;2023-07-16T11:45:01;28.10;99.90
41722;DHT22;27407;24.142;-110.310;2023-07-16T11:47:28;28.10;99.90
41722;DHT22;27407;24.142;-110.310;2023-07-16T11:49:55;28.00;99.90
41722;DHT22;27407;24.142;-110.310;2023-07-16T11:52:27;28.10;99.90
41722;DHT22;27407;24.142;-110.310;2023-07-16T11:54:58;28.10;99.90
41722;DHT22;27407;24.142;-110.310;2023-07-16T11:57:30;28.00;99.90
41722;DHT22;27407;24.142;-110.310;2023-07-16T11:59:56;28.00;99.90
41722;DHT22;27407;24.142;-110.310;2023-07-16T12:02:25;28.10;99.90
41722;DHT22;27407;24.142;-110.310;2023-07-16T12:04:51;28.10;99.90
41722;DHT22;27407;24.142;-110.310;2023-07-16T12:07:37;28.10;99.90
41722;DHT22;27407;24.142;-110.310;2023-07-16T12:10:06;28.10;99.90
41722;DHT22;27407;24.142;-110.310;2023-07-16T12:12:33;28.10;99.90
41722;DHT22;27407;24.142;-110.310;2023-07-16T12:15:07;28.10;99.90
41722;DHT22;27407;24.142;-110.310;2023-07-16T12:17:34;28.10;99.90
41722;DHT22;27407;24.142;-110.310;2023-07-16T12:20:03;28.10;99.90
41722;DHT22;27407;24.142;-110.310;2023-07-16T12:22:30;28.00;99.90
41722;DHT22;27407;24.142;-110.310;2023-07-16T12:24:57;28.00;99.90
41722;DHT22;27407;24.142;-110.310;2023-07-16T12:27:24;28.00;99.90
41722;DHT22;27407;24.142;-110.310;2023-07-16T12:29:50;28.10;99.90
41722;DHT22;27407;24.142;-110.310;2023-07-16T12:32:18;28.10;99.90
41722;DHT22;27407;24.142;-110.310;2023-07-16T12:34:46;28.20;99.90
41722;DHT22;27407;24.142;-110.310;2023-07-16T12:37:12;28.40;99.90
41722;DHT22;27407;24.142;-110.310;2023-07-16T12:39:39;28.40;99.90
41722;DHT22;27407;24.142;-110.310;2023-07-16T12:42:06;28.30;99.90
41722;DHT22;27407;24.142;-110.310;2023-07-16T12:44:33;28.40;99.90
41722;DHT22;27407;24.142;-110.310;2023-07-16T12:46:59;28.40;99.90
41722;DHT22;27407;24.142;-110.310;2023-07-16T12:49:26;28.30;99.90
41722;DHT22;27407;24.142;-110.310;2023-07-16T12:51:53;28.30;99.90
41722;DHT22;27407;24.142;-110.310;2023-07-16T12:54:19;28.20;99.90
41722;DHT22;27407;24.142;-110.310;2023-07-16T12:56:46;28.20;99.90
41722;DHT22;27407;24.142;-110.310;2023-07-16T12:59:12;28.30;99.90
41722;DHT22;27407;24.142;-110.310;2023-07-16T13:01:39;28.20;99.90
41722;DHT22;27407;24.142;-110.310;2023-07-16T13:04:06;28.20;99.90
41722;DHT22;27407;24.142;-110.310;2023-07-16T13:06:32;28.20;99.90
41722;DHT22;27407;24.142;-110.310;2023-07-16T13:08:59;28.20;99.90
41722;DHT22;27407;24.142;-110.310;2023-07-16T13:11:25;28.20;99.90
41722;DHT22;27407;24.142;-110.310;2023-07-16T13:13:52;28.30;99.90
41722;DHT22;27407;24.142;-110.310;2023-07-16T13:16:19;28.20;99.90
41722;DHT22;27407;24.142;-110.310;2023-07-16T13:18:46;28.20;99.90
41722;DHT22;27407;24.142;-110.310;2023-07-16T13:21:12;28.30;99.90
41722;DHT22;27407;24.142;-110.310;2023-07-16T13:23:39;28.30;99.90
41722;DHT22;27407;24.142;-110.310;2023-07-16T13:26:05;28.40;99.90
41722;DHT22;27407;24.142;-110.310;2023-07-16T13:28:32;28.50;99.90
41722;DHT22;27407;24.142;-110.310;2023-07-16T13:30:59;28.50;99.90
41722;DHT22;27407;24.142;-110.310;2023-07-16T13:33:26;28.60;99.90
41722;DHT22;27407;24.142;-110.310;2023-07-16T13:35:52;28.60;99.90
41722;DHT22;27407;24.142;-110.310;2023-07-16T13:38:19;28.60;99.90
41722;DHT22;27407;24.142;-110.310;2023-07-16T13:40:45;28.60;99.90
41722;DHT22;27407;24.142;-110.310;2023-07-16T13:43:12;28.70;99.90
41722;DHT22;27407;24.142;-110.310;2023-07-16T13:45:39;28.70;99.90
41722;DHT22;27407;24.142;-110.310;2023-07-16T13:48:05;28.70;99.90
41722;DHT22;27407;24.142;-110.310;2023-07-16T13:50:32;28.80;99.90
41722;DHT22;27407;24.142;-110.310;2023-07-16T13:52:59;28.80;99.90
41722;DHT22;27407;24.142;-110.310;2023-07-16T13:55:28;28.80;99.90
41722;DHT22;27407;24.142;-110.310;2023-07-16T13:57:54;28.80;99.90
41722;DHT22;27407;24.142;-110.310;2023-07-16T14:00:24;28.80;99.90
41722;DHT22;27407;24.142;-110.310;2023-07-16T14:02:51;28.90;99.90
41722;DHT22;27407;24.142;-110.310;2023-07-16T14:05:18;29.00;99.90
41722;DHT22;27407;24.142;-110.310;2023-07-16T14:07:45;29.10;99.90
41722;DHT22;27407;24.142;-110.310;2023-07-16T14:10:13;29.10;99.90
41722;DHT22;27407;24.142;-110.310;2023-07-16T14:12:39;29.00;99.90
41722;DHT22;27407;24.142;-110.310;2023-07-16T14:15:06;29.10;99.90
41722;DHT22;27407;24.142;-110.310;2023-07-16T14:17:33;29.20;99.90
41722;DHT22;27407;24.142;-110.310;2023-07-16T14:20:00;29.40;99.90
41722;DHT22;27407;24.142;-110.310;2023-07-16T14:22:26;29.60;99.90
41722;DHT22;27407;24.142;-110.310;2023-07-16T14:24:54;29.60;99.90
41722;DHT22;27407;24.142;-110.310;2023-07-16T14:27:21;29.60;99.90
41722;DHT22;27407;24.142;-110.310;2023-07-16T14:29:49;29.70;99.90
41722;DHT22;27407;24.142;-110.310;2023-07-16T14:32:15;29.70;99.90
41722;DHT22;27407;24.142;-110.310;2023-07-16T14:34:42;29.80;99.90
41722;DHT22;27407;24.142;-110.310;2023-07-16T14:37:08;29.90;99.90
41722;DHT22;27407;24.142;-110.310;2023-07-16T14:39:35;30.00;99.90
41722;DHT22;27407;24.142;-110.310;2023-07-16T14:42:02;30.00;99.90
41722;DHT22;27407;24.142;-110.310;2023-07-16T14:44:30;30.00;99.90
41722;DHT22;27407;24.142;-110.310;2023-07-16T14:46:57;30.20;99.90
41722;DHT22;27407;24.142;-110.310;2023-07-16T14:49:23;30.30;99.90
41722;DHT22;27407;24.142;-110.310;2023-07-16T14:51:50;30.40;99.90
41722;DHT22;27407;24.142;-110.310;2023-07-16T14:54:17;30.50;99.90
41722;DHT22;27407;24.142;-110.310;2023-07-16T14:56:44;30.70;99.90
41722;DHT22;27407;24.142;-110.310;2023-07-16T14:59:11;30.80;99.90
41722;DHT22;27407;24.142;-110.310;2023-07-16T15:01:37;30.90;99.90
41722;DHT22;27407;24.142;-110.310;2023-07-16T15:04:05;31.00;99.90
41722;DHT22;27407;24.142;-110.310;2023-07-16T15:06:31;31.10;99.90